createdAt,value
2018-01-19T00:00:31.595Z,5.30
2018-01-19T00:01:31.588Z,5.60
2018-01-19T00:02:31.576Z,5.40
2018-01-19T00:03:31.569Z,5.80
2018-01-19T00:04:31.562Z,5.20
2018-01-19T00:05:31.554Z,5.90
2018-01-19T00:06:31.542Z,6.40
2018-01-19T00:07:31.535Z,6.20
2018-01-19T00:08:31.529Z,6.10
2018-01-19T00:09:31.522Z,6.40
2018-01-19T00:10:31.509Z,6.50
2018-01-19T00:11:31.504Z,6.80
2018-01-19T00:12:31.492Z,7.40
2018-01-19T00:13:31.483Z,7.20
2018-01-19T00:14:31.472Z,7.60
2018-01-19T00:15:31.466Z,7.80
2018-01-19T00:16:31.458Z,7.60
2018-01-19T00:17:31.449Z,7.40
2018-01-19T00:18:31.442Z,7.60
2018-01-19T00:19:31.432Z,7.40
2018-01-19T00:20:31.425Z,7.30
2018-01-19T00:21:31.414Z,7.80
2018-01-19T00:22:31.406Z,7.60
2018-01-19T00:23:31.399Z,7.60
2018-01-19T00:24:31.391Z,8.10
2018-01-19T00:25:31.384Z,7.80
2018-01-19T00:26:31.371Z,8.00
2018-01-19T00:27:31.363Z,8.20
2018-01-19T00:28:31.354Z,8.30
2018-01-19T00:29:31.346Z,8.30
2018-01-19T00:30:31.343Z,8.00
2018-01-19T00:31:31.329Z,8.80
2018-01-19T00:32:31.325Z,8.40
2018-01-19T00:33:31.310Z,8.80
2018-01-19T00:34:31.304Z,8.10
2018-01-19T00:35:31.301Z,8.30
2018-01-19T00:36:31.287Z,9.20
2018-01-19T00:37:31.286Z,8.60
2018-01-19T00:38:31.267Z,9.30
2018-01-19T00:39:31.260Z,9.70
2018-01-19T00:40:31.254Z,9.10
2018-01-19T00:41:31.242Z,9.20
2018-01-19T00:42:31.240Z,8.70
2018-01-19T00:43:31.226Z,8.80
2018-01-19T00:44:31.216Z,9.30
2018-01-19T00:45:31.208Z,8.80
2018-01-19T00:46:31.203Z,9.00
2018-01-19T00:47:31.191Z,9.30
2018-01-19T00:48:31.182Z,9.20
2018-01-19T00:49:31.179Z,9.70
2018-01-19T00:50:31.164Z,8.70
2018-01-19T00:51:31.158Z,8.80
2018-01-19T00:52:31.149Z,9.00
2018-01-19T00:53:31.136Z,9.70
2018-01-19T00:54:31.130Z,9.50
2018-01-19T00:55:31.120Z,9.50
2018-01-19T00:56:31.116Z,9.90
2018-01-19T00:57:31.108Z,9.80
2018-01-19T00:58:31.096Z,9.80
2018-01-19T00:59:31.086Z,10.40
2018-01-19T01:00:31.078Z,10.40
2018-01-19T01:01:31.072Z,9.40
2018-01-19T01:02:31.061Z,9.00
2018-01-19T01:03:31.063Z,9.60
2018-01-19T01:04:31.045Z,10.00
2018-01-19T01:05:31.038Z,10.10
2018-01-19T01:06:31.027Z,9.30
2018-01-19T01:07:31.015Z,9.50
2018-01-19T01:08:31.017Z,9.70
2018-01-19T01:09:31.001Z,10.10
2018-01-19T01:10:30.993Z,10.10
2018-01-19T01:11:30.986Z,10.80
2018-01-19T01:12:30.976Z,10.40
2018-01-19T01:13:30.975Z,10.70
2018-01-19T01:14:30.960Z,10.50
2018-01-19T01:15:30.952Z,11.00
2018-01-19T01:16:30.943Z,10.70
2018-01-19T01:17:30.939Z,10.60
2018-01-19T01:18:30.924Z,11.70
2018-01-19T01:19:30.917Z,11.10
2018-01-19T01:20:30.907Z,10.90
2018-01-19T01:21:30.900Z,11.60
2018-01-19T01:22:30.890Z,12.30
2018-01-19T01:23:30.882Z,12.30
2018-01-19T01:24:30.881Z,11.80
2018-01-19T01:25:30.863Z,12.00
2018-01-19T01:26:30.856Z,11.80
2018-01-19T01:27:30.850Z,12.60
2018-01-19T01:28:30.841Z,11.80
2018-01-19T01:29:30.831Z,12.30
2018-01-19T01:30:30.820Z,12.50
2018-01-19T01:31:30.814Z,12.60
2018-01-19T01:32:30.806Z,12.90
2018-01-19T01:33:30.793Z,12.40
2018-01-19T01:34:30.786Z,12.10
2018-01-19T01:35:30.780Z,12.50
2018-01-19T01:36:30.771Z,12.90
2018-01-19T01:37:30.765Z,13.20
2018-01-19T01:38:30.756Z,12.80
2018-01-19T01:39:30.745Z,13.10
2018-01-19T01:40:30.735Z,12.90
2018-01-19T01:41:30.727Z,12.80
2018-01-19T01:42:30.719Z,12.70
2018-01-19T01:43:30.713Z,12.80
2018-01-19T01:44:30.709Z,12.60
2018-01-19T01:45:30.695Z,11.60
2018-01-19T01:46:30.687Z,12.00
2018-01-19T01:47:30.677Z,11.50
2018-01-19T01:48:30.676Z,12.10
2018-01-19T01:49:30.661Z,12.20
2018-01-19T01:50:30.653Z,12.30
2018-01-19T01:51:30.640Z,12.60
2018-01-19T01:52:30.636Z,9.80
2018-01-19T01:53:30.627Z,11.80
2018-01-19T01:54:30.617Z,11.80
2018-01-19T01:55:30.612Z,12.80
2018-01-19T01:56:30.603Z,10.70
2018-01-19T01:57:30.593Z,11.20
2018-01-19T01:58:30.585Z,11.80
2018-01-19T01:59:30.575Z,12.30
2018-01-19T02:00:30.563Z,11.50
2018-01-19T02:01:30.555Z,11.60
2018-01-19T02:02:30.551Z,11.70
2018-01-19T02:03:30.549Z,12.10
2018-01-19T02:04:30.536Z,11.50
2018-01-19T02:05:30.527Z,10.20
2018-01-19T02:06:30.515Z,9.20
2018-01-19T02:07:30.505Z,9.30
2018-01-19T02:08:30.496Z,9.30
2018-01-19T02:09:30.488Z,9.90
2018-01-19T02:10:30.485Z,10.30
2018-01-19T02:11:30.472Z,9.60
2018-01-19T02:12:30.463Z,9.90
2018-01-19T02:13:30.457Z,9.20
2018-01-19T02:14:30.449Z,9.00
2018-01-19T02:15:30.463Z,9.60
2018-01-19T02:16:30.430Z,9.50
2018-01-19T02:17:30.422Z,9.60
2018-01-19T02:18:30.412Z,10.40
2018-01-19T02:19:30.406Z,9.70
2018-01-19T02:20:30.397Z,9.90
2018-01-19T02:21:30.387Z,10.00
2018-01-19T02:22:30.377Z,10.10
2018-01-19T02:23:30.372Z,9.70
2018-01-19T02:24:30.362Z,10.20
2018-01-19T02:25:30.352Z,10.20
2018-01-19T02:26:30.344Z,9.80
2018-01-19T02:27:30.333Z,10.10
2018-01-19T02:28:30.327Z,10.00
2018-01-19T02:29:30.318Z,10.20
2018-01-19T02:30:30.316Z,10.70
2018-01-19T02:31:30.307Z,10.60
2018-01-19T02:32:30.293Z,9.50
2018-01-19T02:33:30.285Z,10.20
2018-01-19T02:34:30.273Z,10.30
2018-01-19T02:35:30.267Z,10.40
2018-01-19T02:36:30.259Z,9.70
2018-01-19T02:37:30.254Z,9.40
2018-01-19T02:38:30.241Z,10.50
2018-01-19T02:39:30.235Z,9.50
2018-01-19T02:40:30.229Z,10.20
2018-01-19T02:41:30.218Z,9.80
2018-01-19T02:42:30.209Z,9.50
2018-01-19T02:43:30.202Z,9.30
2018-01-19T02:44:30.192Z,9.30
2018-01-19T02:45:30.183Z,9.00
2018-01-19T02:46:30.176Z,8.80
2018-01-19T02:47:30.169Z,9.60
2018-01-19T02:48:30.160Z,9.50
2018-01-19T02:49:30.150Z,9.70
2018-01-19T02:50:30.142Z,9.50
2018-01-19T02:51:30.134Z,9.50
2018-01-19T02:52:30.124Z,8.50
2018-01-19T02:53:30.117Z,8.20
2018-01-19T02:54:30.109Z,7.90
2018-01-19T02:55:30.096Z,7.70
2018-01-19T02:56:30.093Z,7.60
2018-01-19T02:57:30.082Z,7.80
2018-01-19T02:58:30.081Z,8.20
2018-01-19T02:59:30.066Z,8.40
2018-01-19T03:00:30.058Z,8.30
2018-01-19T03:01:30.054Z,8.10
2018-01-19T03:02:30.042Z,8.30
2018-01-19T03:03:30.034Z,7.10
2018-01-19T03:04:30.025Z,7.20
2018-01-19T03:05:30.023Z,7.70
2018-01-19T03:06:30.015Z,7.20
2018-01-19T03:07:30.000Z,7.20
2018-01-19T03:08:29.992Z,7.00
2018-01-19T03:09:29.984Z,6.90
2018-01-19T03:10:29.976Z,6.50
2018-01-19T03:11:29.971Z,6.90
2018-01-19T03:12:29.966Z,6.10
2018-01-19T03:13:29.950Z,6.10
2018-01-19T03:14:29.944Z,6.10
2018-01-19T03:15:29.933Z,6.00
2018-01-19T03:16:29.927Z,6.20
2018-01-19T03:17:29.918Z,5.80
2018-01-19T03:18:29.921Z,5.80
2018-01-19T03:19:29.906Z,5.70
2018-01-19T03:20:29.890Z,6.10
2018-01-19T03:21:29.886Z,6.00
2018-01-19T03:22:29.877Z,5.70
2018-01-19T03:23:29.869Z,6.00
2018-01-19T03:24:29.862Z,5.70
2018-01-19T03:25:29.858Z,6.20
2018-01-19T03:26:29.845Z,6.10
2018-01-19T03:27:29.838Z,5.80
2018-01-19T03:28:29.830Z,5.70
2018-01-19T03:29:29.823Z,6.00
2018-01-19T03:30:29.813Z,6.10
2018-01-19T03:31:29.809Z,5.80
2018-01-19T03:32:29.797Z,6.10
2018-01-19T03:33:29.789Z,6.00
2018-01-19T03:34:29.780Z,5.60
2018-01-19T03:35:29.774Z,5.80
2018-01-19T03:36:29.764Z,5.90
2018-01-19T03:37:29.757Z,5.70
2018-01-19T03:38:29.749Z,5.60
2018-01-19T03:39:29.741Z,6.10
2018-01-19T03:40:29.733Z,5.40
2018-01-19T03:41:29.725Z,5.40
2018-01-19T03:42:29.717Z,5.90
2018-01-19T03:43:29.710Z,5.80
2018-01-19T03:44:29.702Z,5.40
2018-01-19T03:45:29.693Z,5.60
2018-01-19T03:46:29.684Z,5.60
2018-01-19T03:47:29.677Z,5.90
2018-01-19T03:48:29.670Z,5.60
2018-01-19T03:49:29.662Z,5.70
2018-01-19T03:50:29.653Z,6.10
2018-01-19T03:51:29.644Z,6.20
2018-01-19T03:52:29.637Z,5.90
2018-01-19T03:53:29.635Z,5.70
2018-01-19T03:54:29.622Z,5.60
2018-01-19T03:55:29.624Z,5.50
2018-01-19T03:56:29.604Z,5.20
2018-01-19T03:57:29.598Z,5.50
2018-01-19T03:58:29.589Z,5.70
2018-01-19T03:59:29.583Z,5.40
2018-01-19T04:00:29.573Z,5.60
2018-01-19T04:01:29.567Z,5.60
2018-01-19T04:02:29.557Z,5.60
2018-01-19T04:03:29.545Z,5.90
2018-01-19T04:04:29.541Z,5.40
2018-01-19T04:05:29.535Z,5.70
2018-01-19T04:06:29.525Z,5.20
2018-01-19T04:07:29.521Z,5.60
2018-01-19T04:08:29.509Z,5.10
2018-01-19T04:09:29.502Z,5.10
2018-01-19T04:10:29.489Z,5.50
2018-01-19T04:11:29.486Z,5.40
2018-01-19T04:12:29.478Z,5.50
2018-01-19T04:13:29.472Z,5.80
2018-01-19T04:14:29.462Z,5.70
2018-01-19T04:15:29.456Z,5.90
2018-01-19T04:16:29.445Z,5.30
2018-01-19T04:17:29.439Z,5.30
2018-01-19T04:18:29.425Z,5.70
2018-01-19T04:19:29.422Z,5.80
2018-01-19T04:20:29.415Z,5.50
2018-01-19T04:21:29.408Z,5.90
2018-01-19T04:22:29.400Z,5.90
2018-01-19T04:23:29.392Z,5.70
2018-01-19T04:24:29.386Z,5.80
2018-01-19T04:25:29.377Z,6.20
2018-01-19T04:26:29.367Z,6.20
2018-01-19T04:27:29.359Z,6.00
2018-01-19T04:28:29.355Z,6.60
2018-01-19T04:29:29.344Z,6.60
2018-01-19T04:30:29.336Z,6.90
2018-01-19T04:31:29.333Z,6.60
2018-01-19T04:32:29.320Z,7.00
2018-01-19T04:33:29.314Z,6.40
2018-01-19T04:34:29.305Z,6.60
2018-01-19T04:35:29.305Z,7.00
2018-01-19T04:36:29.289Z,7.10
2018-01-19T04:37:29.282Z,6.90
2018-01-19T04:38:29.272Z,7.30
2018-01-19T04:39:29.265Z,6.80
2018-01-19T04:40:29.258Z,7.10
2018-01-19T04:41:29.249Z,7.40
2018-01-19T04:42:29.245Z,7.40
2018-01-19T04:43:29.230Z,7.90
2018-01-19T04:44:29.225Z,7.70
2018-01-19T04:45:29.218Z,7.70
2018-01-19T04:46:29.210Z,7.40
2018-01-19T04:47:29.200Z,7.50
2018-01-19T04:48:29.194Z,7.80
2018-01-19T04:49:29.196Z,7.10
2018-01-19T04:50:29.182Z,6.70
2018-01-19T04:51:29.170Z,7.10
2018-01-19T04:52:29.163Z,6.80
2018-01-19T04:53:29.157Z,6.70
2018-01-19T04:54:29.152Z,7.00
2018-01-19T04:55:29.140Z,7.30
2018-01-19T04:56:29.132Z,7.50
2018-01-19T04:57:29.123Z,7.80
2018-01-19T04:58:29.116Z,7.50
2018-01-19T04:59:29.107Z,7.60
2018-01-19T05:00:29.100Z,7.70
2018-01-19T05:01:29.098Z,7.60
2018-01-19T05:02:29.087Z,8.00
2018-01-19T05:03:29.076Z,8.20
2018-01-19T05:04:29.075Z,7.60
2018-01-19T05:05:29.066Z,8.00
2018-01-19T05:06:29.054Z,8.10
2018-01-19T05:07:29.042Z,8.30
2018-01-19T05:08:29.035Z,8.20
2018-01-19T05:09:29.029Z,7.80
2018-01-19T05:10:29.021Z,8.20
2018-01-19T05:11:29.014Z,8.90
2018-01-19T05:12:29.005Z,8.80
2018-01-19T05:13:28.997Z,8.80
2018-01-19T05:14:28.987Z,8.50
2018-01-19T05:15:28.979Z,8.10
2018-01-19T05:16:28.972Z,8.30
2018-01-19T05:17:28.966Z,7.60
2018-01-19T05:18:28.955Z,7.70
2018-01-19T05:19:28.955Z,7.70
2018-01-19T05:20:28.940Z,6.90
2018-01-19T05:21:28.934Z,7.20
2018-01-19T05:22:28.928Z,7.00
2018-01-19T05:23:28.936Z,7.20
2018-01-19T05:24:28.908Z,7.30
2018-01-19T05:25:28.937Z,7.50
2018-01-19T05:26:28.892Z,7.70
2018-01-19T05:27:28.883Z,6.80
2018-01-19T05:28:28.877Z,7.60
2018-01-19T05:29:28.872Z,7.80
2018-01-19T05:30:28.856Z,7.40
2018-01-19T05:31:28.854Z,7.50
2018-01-19T05:32:28.845Z,7.50
2018-01-19T05:33:28.844Z,7.90
2018-01-19T05:34:28.827Z,7.90
2018-01-19T05:35:28.821Z,8.20
2018-01-19T05:36:28.812Z,8.40
2018-01-19T05:37:28.805Z,7.90
2018-01-19T05:38:28.798Z,8.40
2018-01-19T05:39:28.789Z,7.70
2018-01-19T05:40:28.790Z,8.00
2018-01-19T05:41:28.773Z,8.20
2018-01-19T05:42:28.765Z,8.10
2018-01-19T05:43:28.760Z,7.80
2018-01-19T05:44:28.792Z,7.80
2018-01-19T05:45:28.742Z,7.90
2018-01-19T05:46:28.732Z,8.20
2018-01-19T05:47:28.725Z,8.10
2018-01-19T05:48:28.717Z,7.60
2018-01-19T05:49:28.714Z,8.10
2018-01-19T05:50:28.700Z,7.40
2018-01-19T05:51:28.692Z,8.20
2018-01-19T05:52:28.686Z,8.10
2018-01-19T05:53:28.682Z,7.60
2018-01-19T05:54:28.670Z,7.60
2018-01-19T05:55:28.658Z,7.80
2018-01-19T05:56:28.655Z,7.50
2018-01-19T05:57:28.645Z,7.40
2018-01-19T05:58:28.639Z,7.80
2018-01-19T05:59:28.631Z,7.50
2018-01-19T06:00:28.623Z,7.30
2018-01-19T06:01:28.617Z,7.30
2018-01-19T06:02:28.607Z,7.80
2018-01-19T06:03:28.601Z,8.00
2018-01-19T06:04:28.589Z,7.90
2018-01-19T06:05:28.587Z,8.00
2018-01-19T06:06:28.575Z,8.00
2018-01-19T06:07:28.568Z,8.10
2018-01-19T06:08:28.560Z,8.00
2018-01-19T06:09:28.556Z,8.40
2018-01-19T06:10:28.544Z,8.70
2018-01-19T06:11:28.535Z,8.30
2018-01-19T06:12:28.528Z,9.10
2018-01-19T06:13:28.518Z,8.40
2018-01-19T06:14:28.511Z,8.90
2018-01-19T06:15:28.504Z,8.90
2018-01-19T06:16:28.498Z,9.00
2018-01-19T06:17:28.488Z,9.40
2018-01-19T06:18:28.478Z,9.70
2018-01-19T06:19:28.472Z,9.30
2018-01-19T06:20:28.470Z,9.70
2018-01-19T06:21:28.454Z,9.90
2018-01-19T06:22:28.448Z,10.00
2018-01-19T06:23:28.439Z,9.70
2018-01-19T06:24:28.431Z,9.10
2018-01-19T06:25:28.423Z,9.00
2018-01-19T06:26:28.415Z,9.00
2018-01-19T06:27:28.413Z,9.20
2018-01-19T06:28:28.400Z,9.40
2018-01-19T06:29:28.396Z,8.90
2018-01-19T06:30:28.386Z,8.90
2018-01-19T06:31:28.378Z,9.30
2018-01-19T06:32:28.371Z,8.70
2018-01-19T06:33:28.363Z,9.10
2018-01-19T06:34:28.355Z,8.40
2018-01-19T06:35:28.347Z,9.10
2018-01-19T06:36:28.340Z,9.00
2018-01-19T06:37:28.333Z,9.30
2018-01-19T06:38:28.325Z,8.90
2018-01-19T06:39:28.317Z,9.20
2018-01-19T06:40:28.308Z,8.70
2018-01-19T06:41:28.300Z,8.60
2018-01-19T06:42:28.292Z,9.00
2018-01-19T06:43:28.283Z,8.90
2018-01-19T06:44:28.278Z,7.90
2018-01-19T06:45:28.271Z,8.10
2018-01-19T06:46:28.258Z,8.80
2018-01-19T06:47:28.254Z,8.50
2018-01-19T06:48:28.248Z,8.10
2018-01-19T06:49:28.240Z,7.90
2018-01-19T06:50:28.229Z,8.60
2018-01-19T06:51:28.224Z,7.90
2018-01-19T06:52:28.216Z,8.20
2018-01-19T06:53:28.208Z,8.30
2018-01-19T06:54:28.198Z,7.90
2018-01-19T06:55:28.188Z,7.90
2018-01-19T06:56:28.182Z,7.80
2018-01-19T06:57:28.175Z,8.30
2018-01-19T06:58:28.167Z,7.90
2018-01-19T06:59:28.159Z,8.20
2018-01-19T07:00:28.154Z,8.00
2018-01-19T07:01:28.144Z,7.80
2018-01-19T07:02:28.135Z,7.90
2018-01-19T07:03:28.130Z,7.90
2018-01-19T07:04:28.121Z,8.20
2018-01-19T07:05:28.111Z,8.10
2018-01-19T07:06:28.104Z,7.90
2018-01-19T07:07:28.092Z,7.50
2018-01-19T07:08:28.090Z,7.50
2018-01-19T07:09:28.083Z,7.70
2018-01-19T07:10:28.074Z,8.40
2018-01-19T07:11:28.069Z,8.30
2018-01-19T07:12:28.067Z,7.90
2018-01-19T07:13:28.051Z,7.90
2018-01-19T07:14:28.039Z,7.80
2018-01-19T07:15:28.035Z,8.10
2018-01-19T07:16:28.027Z,7.90
2018-01-19T07:17:28.024Z,7.90
2018-01-19T07:18:28.011Z,7.90
2018-01-19T07:19:27.999Z,8.00
2018-01-19T07:20:27.996Z,7.80
2018-01-19T07:21:27.988Z,8.10
2018-01-19T07:22:27.980Z,7.80
2018-01-19T07:23:27.973Z,8.00
2018-01-19T07:24:27.969Z,8.00
2018-01-19T07:25:27.957Z,8.20
2018-01-19T07:26:27.950Z,7.80
2018-01-19T07:27:27.941Z,8.00
2018-01-19T07:28:27.935Z,8.10
2018-01-19T07:29:27.933Z,8.20
2018-01-19T07:30:27.919Z,8.20
2018-01-19T07:31:27.915Z,8.20
2018-01-19T07:32:27.904Z,8.40
2018-01-19T07:33:27.899Z,8.40
2018-01-19T07:34:27.888Z,8.40
2018-01-19T07:35:27.881Z,8.40
2018-01-19T07:36:27.873Z,8.60
2018-01-19T07:37:27.867Z,8.90
2018-01-19T07:38:27.857Z,9.10
2018-01-19T07:39:27.851Z,8.70
2018-01-19T07:40:27.844Z,8.90
2018-01-19T07:41:27.834Z,8.80
2018-01-19T07:42:27.828Z,8.80
2018-01-19T07:43:27.818Z,8.70
2018-01-19T07:44:27.814Z,9.00
2018-01-19T07:45:27.805Z,8.80
2018-01-19T07:46:27.795Z,8.90
2018-01-19T07:47:27.790Z,9.20
2018-01-19T07:48:27.804Z,9.00
2018-01-19T07:49:27.774Z,8.90
2018-01-19T07:50:27.763Z,9.60
2018-01-19T07:51:27.757Z,9.80
2018-01-19T07:52:27.750Z,9.50
2018-01-19T07:53:27.821Z,10.00
2018-01-19T07:54:27.734Z,10.20
2018-01-19T07:55:27.730Z,10.00
2018-01-19T07:56:27.719Z,10.10
2018-01-19T07:57:27.713Z,10.10
2018-01-19T07:58:27.703Z,9.80
2018-01-19T07:59:27.697Z,10.20
2018-01-19T08:00:27.688Z,9.80
2018-01-19T08:01:27.682Z,10.20
2018-01-19T08:02:27.672Z,10.40
2018-01-19T08:03:27.666Z,10.40
2018-01-19T08:04:27.657Z,10.00
2018-01-19T08:05:27.651Z,10.70
2018-01-19T08:06:27.643Z,10.30
2018-01-19T08:07:27.642Z,10.70
2018-01-19T08:08:27.631Z,10.70
2018-01-19T08:09:27.622Z,10.60
2018-01-19T08:10:27.612Z,10.20
2018-01-19T08:11:27.606Z,10.50
2018-01-19T08:12:27.597Z,10.20
2018-01-19T08:13:27.592Z,11.00
2018-01-19T08:14:27.591Z,10.80
2018-01-19T08:15:27.574Z,10.50
2018-01-19T08:16:27.567Z,11.40
2018-01-19T08:17:27.560Z,11.20
2018-01-19T08:18:27.561Z,11.20
2018-01-19T08:19:27.546Z,11.40
2018-01-19T08:20:27.539Z,10.80
2018-01-19T08:21:27.534Z,11.10
2018-01-19T08:22:27.523Z,11.00
2018-01-19T08:23:27.519Z,11.30
2018-01-19T08:24:27.510Z,11.30
2018-01-19T08:25:27.505Z,11.70
2018-01-19T08:26:27.495Z,10.70
2018-01-19T08:27:27.487Z,11.70
2018-01-19T08:28:27.535Z,11.90
2018-01-19T08:29:27.473Z,11.10
2018-01-19T08:30:27.465Z,11.10
2018-01-19T08:31:27.458Z,11.20
2018-01-19T08:32:27.449Z,11.30
2018-01-19T08:33:27.441Z,11.50
2018-01-19T08:34:27.434Z,11.30
2018-01-19T08:35:27.428Z,11.60
2018-01-19T08:36:27.435Z,11.50
2018-01-19T08:37:27.414Z,12.10
2018-01-19T08:38:27.406Z,11.50
2018-01-19T08:39:27.397Z,11.70
2018-01-19T08:40:27.395Z,11.30
2018-01-19T08:41:27.385Z,11.50
2018-01-19T08:42:27.376Z,11.10
2018-01-19T08:43:27.371Z,11.30
2018-01-19T08:44:27.363Z,11.10
2018-01-19T08:45:27.358Z,10.90
2018-01-19T08:46:27.345Z,11.40
2018-01-19T08:47:27.339Z,11.10
2018-01-19T08:48:27.336Z,11.40
2018-01-19T08:49:27.326Z,11.00
2018-01-19T08:50:27.317Z,10.80
2018-01-19T08:51:27.311Z,10.70
2018-01-19T08:52:27.306Z,11.00
2018-01-19T08:53:27.299Z,11.00
2018-01-19T08:54:27.291Z,10.50
2018-01-19T08:55:27.284Z,10.80
2018-01-19T08:56:27.276Z,10.80
2018-01-19T08:57:27.273Z,11.50
2018-01-19T08:58:27.270Z,10.80
2018-01-19T08:59:27.255Z,10.10
2018-01-19T09:00:27.247Z,10.50
2018-01-19T09:01:27.240Z,10.10
2018-01-19T09:02:27.233Z,10.20
2018-01-19T09:03:27.225Z,10.10
2018-01-19T09:04:27.219Z,10.30
2018-01-19T09:05:27.212Z,9.20
2018-01-19T09:06:27.205Z,9.30
2018-01-19T09:07:27.198Z,9.80
2018-01-19T09:08:27.192Z,9.80
2018-01-19T09:09:27.182Z,9.80
2018-01-19T09:10:27.208Z,9.30
2018-01-19T09:11:27.169Z,9.70
2018-01-19T09:12:27.160Z,10.30
2018-01-19T09:13:27.160Z,9.80
2018-01-19T09:14:27.146Z,9.70
2018-01-19T09:15:27.140Z,9.70
2018-01-19T09:16:27.134Z,9.70
2018-01-19T09:17:27.126Z,10.20
2018-01-19T09:18:27.120Z,10.30
2018-01-19T09:19:27.112Z,10.00
2018-01-19T09:20:27.107Z,9.60
2018-01-19T09:21:27.102Z,10.50
2018-01-19T09:22:27.092Z,10.50
2018-01-19T09:23:27.083Z,10.00
2018-01-19T09:24:27.079Z,9.80
2018-01-19T09:25:27.069Z,10.20
2018-01-19T09:26:27.064Z,9.90
2018-01-19T09:27:27.056Z,10.10
2018-01-19T09:28:27.049Z,10.10
2018-01-19T09:29:27.040Z,10.40
2018-01-19T09:30:27.033Z,9.70
2018-01-19T09:31:27.025Z,10.10
2018-01-19T09:32:27.019Z,9.90
2018-01-19T09:33:27.011Z,10.10
2018-01-19T09:34:27.005Z,10.50
2018-01-19T09:35:27.002Z,10.60
2018-01-19T09:36:26.991Z,10.30
2018-01-19T09:37:26.988Z,10.40
2018-01-19T09:38:26.975Z,10.20
2018-01-19T09:39:26.968Z,9.80
2018-01-19T09:40:26.960Z,10.00
2018-01-19T09:41:26.954Z,9.80
2018-01-19T09:42:26.946Z,9.90
2018-01-19T09:43:26.940Z,10.10
2018-01-19T09:44:26.935Z,9.60
2018-01-19T09:45:26.927Z,9.60
2018-01-19T09:46:26.919Z,9.20
2018-01-19T09:47:26.914Z,9.50
2018-01-19T09:48:26.906Z,9.40
2018-01-19T09:49:26.901Z,9.20
2018-01-19T09:50:26.893Z,9.30
2018-01-19T09:51:26.889Z,9.60
2018-01-19T09:52:26.881Z,8.50
2018-01-19T09:53:26.870Z,9.10
2018-01-19T09:54:26.869Z,9.30
2018-01-19T09:55:26.858Z,8.50
2018-01-19T09:56:26.852Z,8.60
2018-01-19T09:57:26.848Z,8.90
2018-01-19T09:58:26.837Z,8.90
2018-01-19T09:59:26.830Z,8.70
2018-01-19T10:00:26.823Z,8.90
2018-01-19T10:01:26.823Z,8.90
2018-01-19T10:02:26.813Z,8.60
2018-01-19T10:03:26.803Z,9.10
2018-01-19T10:04:26.795Z,8.90
2018-01-19T10:05:26.795Z,9.30
2018-01-19T10:06:26.782Z,8.90
2018-01-19T10:07:26.776Z,9.00
2018-01-19T10:08:26.768Z,8.70
2018-01-19T10:09:26.763Z,8.60
2018-01-19T10:10:26.756Z,8.70
2018-01-19T10:11:26.750Z,8.30
2018-01-19T10:12:26.769Z,8.60
2018-01-19T10:13:26.746Z,8.20
2018-01-19T10:14:26.731Z,8.40
2018-01-19T10:15:26.724Z,8.40
2018-01-19T10:16:26.716Z,8.10
2018-01-19T10:17:26.710Z,8.70
2018-01-19T10:18:26.703Z,7.80
2018-01-19T10:19:26.696Z,8.70
2018-01-19T10:20:26.690Z,8.60
2018-01-19T10:21:26.684Z,8.30
2018-01-19T10:22:26.676Z,8.90
2018-01-19T10:23:26.670Z,8.50
2018-01-19T10:24:26.662Z,8.80
2018-01-19T10:25:26.657Z,8.20
2018-01-19T10:26:26.650Z,8.00
2018-01-19T10:27:26.642Z,8.60
2018-01-19T10:28:26.639Z,8.50
2018-01-19T10:29:26.630Z,8.50
2018-01-19T10:30:26.621Z,8.60
2018-01-19T10:31:26.615Z,8.90
2018-01-19T10:32:26.609Z,8.10
2018-01-19T10:33:26.603Z,8.90
2018-01-19T10:34:26.593Z,8.50
2018-01-19T10:35:26.589Z,8.70
2018-01-19T10:36:26.582Z,7.90
2018-01-19T10:37:26.576Z,8.20
2018-01-19T10:38:26.570Z,8.50
2018-01-19T10:39:26.563Z,8.40
2018-01-19T10:40:26.561Z,8.60
2018-01-19T10:41:26.547Z,8.50
2018-01-19T10:42:26.544Z,8.20
2018-01-19T10:43:26.537Z,8.50
2018-01-19T10:44:26.530Z,8.60
2018-01-19T10:45:26.524Z,8.20
2018-01-19T10:46:26.517Z,8.40
2018-01-19T10:47:26.511Z,8.60
2018-01-19T10:48:26.504Z,8.70
2018-01-19T10:49:26.496Z,8.70
2018-01-19T10:50:26.490Z,8.80
2018-01-19T10:51:26.486Z,9.10
2018-01-19T10:52:26.479Z,8.70
2018-01-19T10:53:26.472Z,8.50
2018-01-19T10:54:26.464Z,8.30
2018-01-19T10:55:26.460Z,8.30
2018-01-19T10:56:26.455Z,8.00
2018-01-19T10:57:26.448Z,8.50
2018-01-19T10:58:26.442Z,9.00
2018-01-19T10:59:26.439Z,8.50
2018-01-19T11:00:26.427Z,8.10
2018-01-19T11:01:26.427Z,8.00
2018-01-19T11:02:26.412Z,8.20
2018-01-19T11:03:26.409Z,7.90
2018-01-19T11:04:26.403Z,8.70
2018-01-19T11:05:26.401Z,8.50
2018-01-19T11:06:26.387Z,9.00
2018-01-19T11:07:26.389Z,8.80
2018-01-19T11:08:26.377Z,8.70
2018-01-19T11:09:26.373Z,8.90
2018-01-19T11:10:26.370Z,8.90
2018-01-19T11:11:26.361Z,9.10
2018-01-19T11:12:26.352Z,9.70
2018-01-19T11:13:26.363Z,9.80
2018-01-19T11:14:26.345Z,9.60
2018-01-19T11:15:26.334Z,9.50
2018-01-19T11:16:26.330Z,9.60
2018-01-19T11:17:26.322Z,9.40
2018-01-19T11:18:26.313Z,9.20
2018-01-19T11:19:26.308Z,9.80
2018-01-19T11:20:26.299Z,9.60
2018-01-19T11:21:26.296Z,9.20
2018-01-19T11:22:26.287Z,9.70
2018-01-19T11:23:26.291Z,9.70
2018-01-19T11:24:26.276Z,10.20
2018-01-19T11:25:26.274Z,9.90
2018-01-19T11:26:26.259Z,10.60
2018-01-19T11:27:26.256Z,10.70
2018-01-19T11:28:26.246Z,10.70
2018-01-19T11:29:26.245Z,10.90
2018-01-19T11:30:26.240Z,10.80
2018-01-19T11:31:26.230Z,10.40
2018-01-19T11:32:26.226Z,11.40
2018-01-19T11:33:26.220Z,10.40
2018-01-19T11:34:26.213Z,10.40
2018-01-19T11:35:26.204Z,10.80
2018-01-19T11:36:26.197Z,10.80
2018-01-19T11:37:26.192Z,10.50
2018-01-19T11:38:26.186Z,10.80
2018-01-19T11:39:26.178Z,10.50
2018-01-19T11:40:26.174Z,10.50
2018-01-19T11:41:26.168Z,11.10
2018-01-19T11:42:26.161Z,10.30
2018-01-19T11:43:26.164Z,10.80
2018-01-19T11:44:26.147Z,10.40
2018-01-19T11:45:26.188Z,11.30
2018-01-19T11:46:26.133Z,10.30
2018-01-19T11:47:26.128Z,11.10
2018-01-19T11:48:26.123Z,10.60
2018-01-19T11:49:26.117Z,10.60
2018-01-19T11:50:26.109Z,10.20
2018-01-19T11:51:26.101Z,10.70
2018-01-19T11:52:26.096Z,10.50
2018-01-19T11:53:26.091Z,10.60
2018-01-19T11:54:26.083Z,10.40
2018-01-19T11:55:26.075Z,10.50
2018-01-19T11:56:26.073Z,10.50
2018-01-19T11:57:26.062Z,10.30
2018-01-19T11:58:26.063Z,10.80
2018-01-19T11:59:26.052Z,10.70
2018-01-19T12:00:26.047Z,10.30
2018-01-19T12:01:26.047Z,10.30
2018-01-19T12:02:26.038Z,10.90
2018-01-19T12:03:26.029Z,10.20
2018-01-19T12:04:26.025Z,10.70
2018-01-19T12:05:26.016Z,10.90
2018-01-19T12:06:26.078Z,10.70
2018-01-19T12:07:26.002Z,11.00
2018-01-19T12:08:25.997Z,10.50
2018-01-19T12:09:25.995Z,10.50
2018-01-19T12:10:25.984Z,10.00
2018-01-19T12:11:25.978Z,10.20
2018-01-19T12:12:25.972Z,10.00
2018-01-19T12:13:25.966Z,10.30
2018-01-19T12:14:25.965Z,10.30
2018-01-19T12:15:25.955Z,9.70
2018-01-19T12:16:25.946Z,10.00
2018-01-19T12:17:25.942Z,10.80
2018-01-19T12:18:25.937Z,10.40
2018-01-19T12:19:25.928Z,10.30
2018-01-19T12:20:25.923Z,10.70
2018-01-19T12:21:25.915Z,10.60
2018-01-19T12:22:25.911Z,10.70
2018-01-19T12:23:25.905Z,11.10
2018-01-19T12:24:25.897Z,10.70
2018-01-19T12:25:25.892Z,12.00
2018-01-19T12:26:25.901Z,11.50
2018-01-19T12:27:25.879Z,11.80
2018-01-19T12:28:25.875Z,12.10
2018-01-19T12:29:25.867Z,11.80
2018-01-19T12:30:25.862Z,12.10
2018-01-19T12:31:25.860Z,11.60
2018-01-19T12:32:25.848Z,11.70
2018-01-19T12:33:25.843Z,12.30
2018-01-19T12:34:25.838Z,12.80
2018-01-19T12:35:25.834Z,12.60
2018-01-19T12:36:25.825Z,12.40
2018-01-19T12:37:25.817Z,12.20
2018-01-19T12:38:25.813Z,11.70
2018-01-19T12:39:25.806Z,12.50
2018-01-19T12:40:25.798Z,12.90
2018-01-19T12:41:25.793Z,12.50
2018-01-19T12:42:25.788Z,12.30
2018-01-19T12:43:25.779Z,12.90
2018-01-19T12:44:25.777Z,12.60
2018-01-19T12:45:25.767Z,12.50
2018-01-19T12:46:25.762Z,13.00
2018-01-19T12:47:25.756Z,13.20
2018-01-19T12:48:25.750Z,13.10
2018-01-19T12:49:25.742Z,13.00
2018-01-19T12:50:25.735Z,12.60
2018-01-19T12:51:25.733Z,13.00
2018-01-19T12:52:25.727Z,12.80
2018-01-19T12:53:25.718Z,13.50
2018-01-19T12:54:25.713Z,12.70
2018-01-19T12:55:25.703Z,12.10
2018-01-19T12:56:25.698Z,13.10
2018-01-19T12:57:25.692Z,12.90
2018-01-19T12:58:25.689Z,12.10
2018-01-19T12:59:25.680Z,12.00
2018-01-19T13:00:25.673Z,12.60
2018-01-19T13:01:25.667Z,12.40
2018-01-19T13:02:25.661Z,12.40
2018-01-19T13:03:25.656Z,12.20
2018-01-19T13:04:25.648Z,12.40
2018-01-19T13:05:25.646Z,12.30
2018-01-19T13:06:25.636Z,12.30
2018-01-19T13:07:25.628Z,12.60
2018-01-19T13:08:25.629Z,12.60
2018-01-19T13:09:25.617Z,12.70